Terminal Aerodrome Forecast
Issued by NWS Twin Cities, MN

Home | Current Version | Previous Version | Graphics & Text | Print | Product List | Glossary On
Versions: 1 2 3 4 5 6 7 8 9 10 11 12 13 14 15 16 17 18 19 20 21 22 23
000
FTUS43 KMPX 192338
TAFEAU
TAF
KEAU 192338Z 2000/2024 36006KT P6SM BKN250
     FM200400 01002KT P6SM OVC200
     FM201600 26005KT P6SM BKN150
     FM201900 27008KT P6SM SCT050 BKN120=

USA.gov is the U.S. government's official web portal to all federal, state and local government web resources and services.